Wetterstation Vordersexau
Wetterdaten: Woche 30.03.15 - 05.04.15 (KW14)
Datum Zeit Temp. A. Feuchte A. Luftdruck Regen Wind Richtung Taupunkt Windchill Windben
30.03.2015 00:00 9,8 C 84 % 1004,0 hPa 0,8 l/m 18,8 km/h S-SW 7,2 C 3,4 C 10,4 km/h
30.03.2015 01:00 9,6 C 83 % 1002,6 hPa 1,2 l/m 13,6 km/h W-SW 6,9 C 5,3 C 7,6 km/h
30.03.2015 02:00 9,8 C 85 % 1001,9 hPa 0,0 l/m 20,7 km/h W 7,4 C 2,8 C 11,5 km/h
30.03.2015 03:00 9,7 C 83 % 1001,1 hPa 0,8 l/m 24,6 km/h W-SW 7,0 C 1,5 C 13,7 km/h
30.03.2015 04:00 9,6 C 83 % 1000,9 hPa 0,8 l/m 19,4 km/h S-SW 6,9 C 3,0 C 10,8 km/h
30.03.2015 05:00 9,8 C 83 % 1000,6 hPa 0,8 l/m 29,8 km/h N-NW 7,1 C 0,4 C 16,6 km/h
30.03.2015 06:00 8,7 C 85 % 1002,5 hPa 1,7 l/m 0,0 km/h S 6,3 C 8,7 C 0,0 km/h
30.03.2015 07:00 8,3 C 84 % 1002,7 hPa 0,4 l/m 3,9 km/h S-SW 5,8 C 8,3 C 2,2 km/h
30.03.2015 08:00 8,4 C 84 % 1003,7 hPa 0,4 l/m 0,0 km/h W-NW 5,9 C 8,4 C 0,0 km/h
30.03.2015 09:00 9,1 C 85 % 1004,8 hPa 0,0 l/m 0,0 km/h W-NW 6,7 C 9,1 C 0,0 km/h
30.03.2015 10:00 9,8 C 83 % 1005,6 hPa 0,0 l/m 0,0 km/h NW 7,1 C 9,8 C 0,0 km/h
30.03.2015 11:00 10,1 C 77 % 1006,7 hPa 0,0 l/m 0,0 km/h NO 6,3 C 10,1 C 0,0 km/h
30.03.2015 12:00 10,6 C 74 % 1007,4 hPa 0,0 l/m 11,7 km/h W-NW 6,2 C 7,4 C 6,5 km/h
30.03.2015 13:00 13,5 C 54 % 1008,4 hPa 0,0 l/m 11,7 km/h W 4,4 C 10,7 C 6,5 km/h
30.03.2015 14:00 14,4 C 49 % 1009,1 hPa 0,0 l/m 3,9 km/h N-NW 3,8 C 14,4 C 2,2 km/h
30.03.2015 15:00 12,9 C 57 % 1009,8 hPa 0,0 l/m 2,6 km/h W-NW 4,6 C 12,9 C 1,4 km/h
30.03.2015 16:00 11,6 C 59 % 1010,6 hPa 0,0 l/m 0,0 km/h W-NW 3,9 C 11,6 C 0,0 km/h
30.03.2015 17:00 11,7 C 56 % 1011,2 hPa 0,0 l/m 0,0 km/h W-NW 3,2 C 11,7 C 0,0 km/h
30.03.2015 18:00 10,9 C 56 % 1011,6 hPa 0,0 l/m 21,4 km/h NW 2,5 C 4,0 C 11,9 km/h
30.03.2015 19:00 10,3 C 56 % 1012,7 hPa 0,0 l/m 0,0 km/h W-NW 1,9 C 10,3 C 0,0 km/h
30.03.2015 20:00 9,8 C 55 % 1013,2 hPa 0,0 l/m 2,6 km/h SW 1,2 C 9,8 C 1,4 km/h
30.03.2015 21:00 7,9 C 66 % 1013,0 hPa 0,0 l/m 0,0 km/h W 1,9 C 7,9 C 0,0 km/h
30.03.2015 22:00 7,6 C 69 % 1012,8 hPa 0,0 l/m 0,0 km/h W 2,3 C 7,6 C 0,0 km/h
30.03.2015 23:00 9,4 C 69 % 1012,4 hPa 0,0 l/m 9,1 km/h W 4,0 C 7,5 C 5,0 km/h
31.03.2015 00:00 9,4 C 72 % 1011,5 hPa 0,0 l/m 21,4 km/h W 4,6 C 2,1 C 11,9 km/h
31.03.2015 01:00 9,9 C 76 % 1010,4 hPa 0,0 l/m 21,4 km/h SW 5,9 C 2,7 C 11,9 km/h
31.03.2015 02:00 10,8 C 77 % 1009,0 hPa 0,0 l/m 24,0 km/h W-SW 6,9 C 3,2 C 13,3 km/h
31.03.2015 03:00 11,3 C 81 % 1007,2 hPa 0,0 l/m 48,0 km/h S-SW 8,2 C -0,1 C 26,6 km/h
31.03.2015 04:00 12,1 C 80 % 1006,2 hPa 0,0 l/m 43,4 km/h W-SW 8,8 C 1,6 C 24,1 km/h
31.03.2015 05:00 12,8 C 79 % 1005,0 hPa 0,0 l/m 18,8 km/h W-SW 9,2 C 7,3 C 10,4 km/h
31.03.2015 06:00 13,1 C 77 % 1006,0 hPa 0,0 l/m 40,2 km/h W-SW 9,2 C 3,5 C 22,3 km/h
31.03.2015 07:00 12,9 C 74 % 1005,8 hPa 0,0 l/m 46,0 km/h SW 8,4 C 2,5 C 25,6 km/h
31.03.2015 08:00 13,1 C 70 % 1005,6 hPa 0,0 l/m 54,4 km/h S-SW 7,8 C 2,1 C 30,2 km/h
31.03.2015 09:00 12,9 C 71 % 1006,4 hPa 0,0 l/m 59,6 km/h S-SW 7,8 C 1,5 C 33,1 km/h
31.03.2015 10:00 12,9 C 72 % 1006,7 hPa 0,0 l/m 37,6 km/h W-SW 8,0 C 3,5 C 20,9 km/h
31.03.2015 11:00 12,7 C 75 % 1007,0 hPa 0,0 l/m 60,9 km/h S-SW 8,4 C 1,1 C 33,8 km/h
31.03.2015 12:00 12,6 C 73 % 1006,8 hPa 0,0 l/m 22,7 km/h W 7,9 C 5,9 C 12,6 km/h
31.03.2015 13:00 11,5 C 82 % 1007,5 hPa 0,0 l/m 31,8 km/h W-NW 8,5 C 2,4 C 17,6 km/h
31.03.2015 14:00 11,5 C 78 % 1007,9 hPa 0,8 l/m 20,7 km/h W 7,8 C 5,0 C 11,5 km/h
31.03.2015 15:00 10,5 C 79 % 1008,5 hPa 0,4 l/m 9,1 km/h W 7,0 C 8,7 C 5,0 km/h
31.03.2015 16:00 13,8 C 71 % 1009,7 hPa 0,4 l/m 47,3 km/h NW 8,6 C 3,8 C 26,3 km/h
31.03.2015 17:00 17,6 C 55 % 1010,3 hPa 0,0 l/m 3,2 km/h W-NW 8,5 C 17,6 C 1,8 km/h
31.03.2015 18:00 13,9 C 55 % 1011,1 hPa 0,0 l/m 25,3 km/h W-NW 5,0 C 7,1 C 14,0 km/h
31.03.2015 19:00 10,6 C 56 % 1012,0 hPa 0,0 l/m 5,2 km/h W 2,2 C 10,6 C 2,9 km/h
31.03.2015 20:00 7,8 C 69 % 1013,3 hPa 0,0 l/m 0,0 km/h W 2,5 C 7,8 C 0,0 km/h
31.03.2015 21:00 7,6 C 69 % 1013,4 hPa 0,0 l/m 9,7 km/h W-SW 2,3 C 5,1 C 5,4 km/h
31.03.2015 22:00 7,9 C 65 % 1014,0 hPa 0,0 l/m 20,7 km/h W 1,7 C 0,3 C 11,5 km/h
31.03.2015 23:00 8,3 C 60 % 1014,6 hPa 0,0 l/m 18,8 km/h W 1,0 C 1,5 C 10,4 km/h
01.04.2015 00:00 8,2 C 57 % 1015,3 hPa 0,0 l/m 21,4 km/h W-NW 0,2 C 0,5 C 11,9 km/h
01.04.2015 01:00 8,1 C 56 % 1016,1 hPa 0,0 l/m 18,1 km/h W-NW -0,1 C 1,5 C 10,1 km/h
01.04.2015 02:00 7,5 C 57 % 1016,0 hPa 0,0 l/m 18,8 km/h W-NW -0,5 C 0,5 C 10,4 km/h
01.04.2015 03:00 7,1 C 60 % 1016,1 hPa 0,0 l/m 5,2 km/h W-SW -0,1 C 7,1 C 2,9 km/h
01.04.2015 04:00 6,7 C 65 % 1015,9 hPa 0,0 l/m 16,8 km/h NO 0,6 C 0,3 C 9,4 km/h
01.04.2015 05:00 3,9 C 72 % 1017,2 hPa 0,0 l/m 0,0 km/h N -0,7 C 3,9 C 0,0 km/h
01.04.2015 06:00 2,5 C 82 % 1018,2 hPa 1,7 l/m 0,0 km/h W-NW -0,3 C 2,5 C 0,0 km/h
01.04.2015 07:00 2,4 C 84 % 1018,9 hPa 0,8 l/m 13,6 km/h S-SW -0,0 C -3,3 C 7,6 km/h
01.04.2015 08:00 2,9 C 85 % 1019,7 hPa 0,0 l/m 0,0 km/h W 0,6 C 2,9 C 0,0 km/h
01.04.2015 09:00 3,9 C 82 % 1020,5 hPa 0,0 l/m 4,5 km/h N-NO 1,1 C 3,9 C 2,5 km/h
01.04.2015 10:00 3,8 C 82 % 1021,4 hPa 0,0 l/m 0,0 km/h SO 1,0 C 3,8 C 0,0 km/h
01.04.2015 11:00 8,8 C 81 % 1021,5 hPa 0,0 l/m 0,0 km/h W-NW 5,7 C 8,8 C 0,0 km/h
01.04.2015 12:00 14,4 C 59 % 1021,3 hPa 0,0 l/m 0,0 km/h NW 6,5 C 14,4 C 0,0 km/h
01.04.2015 13:00 11,9 C 64 % 1021,4 hPa 1,2 l/m 4,5 km/h W-NW 5,3 C 11,9 C 2,5 km/h
01.04.2015 14:00 11,8 C 49 % 1021,4 hPa 0,0 l/m 21,4 km/h W-NW 1,4 C 5,2 C 11,9 km/h
01.04.2015 15:00 8,3 C 62 % 1021,5 hPa 0,0 l/m 20,7 km/h NW 1,5 C 0,9 C 11,5 km/h
01.04.2015 16:00 10,6 C 52 % 1021,6 hPa 0,0 l/m 9,7 km/h W-NW 1,2 C 8,4 C 5,4 km/h
01.04.2015 17:00 12,8 C 53 % 1021,7 hPa 0,0 l/m 7,1 km/h W 3,5 C 12,4 C 4,0 km/h
01.04.2015 18:00 7,1 C 63 % 1022,1 hPa 0,0 l/m 5,2 km/h W-SW 0,5 C 7,1 C 2,9 km/h
01.04.2015 19:00 5,9 C 66 % 1022,2 hPa 0,0 l/m 9,1 km/h W-NW 0,0 C 3,7 C 5,0 km/h
01.04.2015 20:00 5,8 C 69 % 1022,7 hPa 0,0 l/m 4,5 km/h W 0,6 C 5,8 C 2,5 km/h
01.04.2015 21:00 5,5 C 69 % 1022,5 hPa 0,0 l/m 0,6 km/h W-SW 0,3 C 5,5 C 0,4 km/h
01.04.2015 22:00 5,3 C 69 % 1022,5 hPa 0,0 l/m 0,0 km/h W 0,1 C 5,3 C 0,0 km/h
01.04.2015 23:00 5,6 C 69 % 1021,8 hPa 0,0 l/m 18,8 km/h W 0,4 C -1,9 C 10,4 km/h
02.04.2015 00:00 5,9 C 67 % 1021,6 hPa 0,0 l/m 12,3 km/h SW 0,3 C 1,6 C 6,8 km/h
02.04.2015 01:00 6,1 C 67 % 1020,8 hPa 0,0 l/m 1,3 km/h W-SW 0,4 C 6,1 C 0,7 km/h
02.04.2015 02:00 6,2 C 67 % 1020,1 hPa 0,0 l/m 21,4 km/h W 0,5 C -2,1 C 11,9 km/h
02.04.2015 03:00 6,1 C 68 % 1019,3 hPa 0,0 l/m 18,8 km/h W-SW 0,6 C -1,3 C 10,4 km/h
02.04.2015 04:00 6,4 C 68 % 1017,9 hPa 0,0 l/m 17,5 km/h W-SW 0,9 C -0,4 C 9,7 km/h
02.04.2015 05:00 6,4 C 69 % 1016,6 hPa 0,0 l/m 13,6 km/h W-SW 1,1 C 1,5 C 7,6 km/h
02.04.2015 06:00 5,4 C 75 % 1016,3 hPa 0,0 l/m 37,6 km/h W-SW 1,3 C -7,5 C 20,9 km/h
02.04.2015 07:00 5,6 C 76 % 1015,5 hPa 0,0 l/m 41,5 km/h S-SW 1,7 C -7,9 C 23,0 km/h
02.04.2015 08:00 5,1 C 82 % 1015,3 hPa 0,4 l/m 22,7 km/h W 2,3 C -4,0 C 12,6 km/h
02.04.2015 09:00 5,1 C 84 % 1014,8 hPa 0,8 l/m 25,9 km/h W 2,6 C -5,1 C 14,4 km/h
02.04.2015 10:00 5,5 C 85 % 1014,7 hPa 0,0 l/m 16,2 km/h W 3,2 C -0,9 C 9,0 km/h
02.04.2015 11:00 5,9 C 85 % 1014,5 hPa 0,8 l/m 35,6 km/h SW 3,6 C -6,4 C 19,8 km/h
02.04.2015 12:00 6,4 C 85 % 1014,6 hPa 0,0 l/m 33,7 km/h W-SW 4,1 C -5,3 C 18,7 km/h
02.04.2015 13:00 6,9 C 85 % 1014,6 hPa 0,0 l/m 27,9 km/h W 4,6 C -3,2 C 15,5 km/h
02.04.2015 14:00 7,2 C 85 % 1014,7 hPa 0,0 l/m 32,4 km/h W 4,9 C -3,8 C 18,0 km/h
02.04.2015 15:00 7,1 C 85 % 1015,4 hPa 1,7 l/m 22,7 km/h N-NO 4,8 C -1,4 C 12,6 km/h
02.04.2015 16:00 6,1 C 85 % 1017,3 hPa 3,3 l/m 3,2 km/h S-SW 3,8 C 6,1 C 1,8 km/h
02.04.2015 17:00 5,9 C 85 % 1017,8 hPa 0,8 l/m 0,0 km/h S 3,6 C 5,9 C 0,0 km/h
02.04.2015 18:00 6,5 C 85 % 1018,3 hPa 0,0 l/m 0,0 km/h S 4,2 C 6,5 C 0,0 km/h
02.04.2015 19:00 5,1 C 86 % 1018,6 hPa 0,0 l/m 0,0 km/h S 3,0 C 5,1 C 0,0 km/h
02.04.2015 20:00 3,8 C 86 % 1019,8 hPa 0,0 l/m 0,0 km/h S 1,7 C 3,8 C 0,0 km/h
02.04.2015 21:00 2,5 C 86 % 1020,3 hPa 0,0 l/m 0,0 km/h S 0,4 C 2,5 C 0,0 km/h
02.04.2015 22:00 2,2 C 86 % 1021,0 hPa 0,0 l/m 0,0 km/h S 0,1 C 2,2 C 0,0 km/h
02.04.2015 23:00 1,9 C 86 % 1021,5 hPa 0,0 l/m 0,0 km/h S -0,2 C 1,9 C 0,0 km/h
03.04.2015 00:00 1,1 C 86 % 1021,8 hPa 0,0 l/m 0,0 km/h S -1,0 C 1,1 C 0,0 km/h
03.04.2015 01:00 0,4 C 86 % 1021,8 hPa 0,0 l/m 0,0 km/h S -1,7 C 0,4 C 0,0 km/h
03.04.2015 02:00 0,0 C 86 % 1021,6 hPa 0,0 l/m 0,0 km/h S -2,1 C 0,0 C 0,0 km/h
03.04.2015 03:00 -0,5 C 86 % 1021,7 hPa 0,0 l/m 0,0 km/h S -2,5 C -0,5 C 0,0 km/h
03.04.2015 04:00 -1,0 C 86 % 1021,1 hPa 0,0 l/m 0,0 km/h S -3,0 C -1,0 C 0,0 km/h
03.04.2015 05:00 -1,1 C 85 % 1021,1 hPa 0,0 l/m 0,0 km/h S-SO -3,3 C -1,1 C 0,0 km/h
03.04.2015 06:00 -0,7 C 85 % 1021,1 hPa 0,0 l/m 0,0 km/h S-SO -2,9 C -0,7 C 0,0 km/h
03.04.2015 07:00 -0,2 C 85 % 1020,9 hPa 0,0 l/m 0,0 km/h S-SO -2,4 C -0,2 C 0,0 km/h
03.04.2015 08:00 3,1 C 75 % 1020,5 hPa 0,0 l/m 0,0 km/h SO -0,9 C 3,1 C 0,0 km/h
03.04.2015 09:00 6,7 C 81 % 1020,1 hPa 0,0 l/m 0,0 km/h W 3,7 C 6,7 C 0,0 km/h
03.04.2015 10:00 12,5 C 74 % 1019,7 hPa 0,0 l/m 0,0 km/h W 8,0 C 12,5 C 0,0 km/h
03.04.2015 11:00 16,6 C 57 % 1019,1 hPa 0,0 l/m 0,0 km/h S-SW 8,0 C 16,6 C 0,0 km/h
03.04.2015 12:00 16,5 C 55 % 1018,0 hPa 0,0 l/m 0,6 km/h NW 7,4 C 16,5 C 0,4 km/h
03.04.2015 13:00 16,8 C 53 % 1017,2 hPa 0,0 l/m 0,0 km/h W-NW 7,2 C 16,8 C 0,0 km/h
03.04.2015 14:00 16,4 C 52 % 1016,4 hPa 0,0 l/m 0,0 km/h W-NW 6,5 C 16,4 C 0,0 km/h
03.04.2015 15:00 16,8 C 49 % 1015,5 hPa 0,0 l/m 12,3 km/h W-NW 6,0 C 14,2 C 6,8 km/h
03.04.2015 16:00 13,4 C 54 % 1014,8 hPa 0,0 l/m 1,3 km/h W 4,3 C 13,4 C 0,7 km/h
03.04.2015 17:00 11,2 C 57 % 1014,8 hPa 0,0 l/m 3,2 km/h SW 3,0 C 11,2 C 1,8 km/h
03.04.2015 18:00 9,4 C 60 % 1014,8 hPa 0,0 l/m 6,5 km/h S-SO 2,0 C 9,4 C 3,6 km/h
03.04.2015 19:00 7,4 C 71 % 1014,8 hPa 0,0 l/m 10,4 km/h S-SO 2,5 C 4,5 C 5,8 km/h
03.04.2015 20:00 6,6 C 77 % 1014,8 hPa 0,0 l/m 9,1 km/h SO 2,9 C 4,5 C 5,0 km/h
03.04.2015 21:00 5,9 C 81 % 1014,6 hPa 0,0 l/m 0,0 km/h SO 2,9 C 5,9 C 0,0 km/h
03.04.2015 22:00 5,6 C 83 % 1014,4 hPa 0,4 l/m 0,0 km/h SO 2,9 C 5,6 C 0,0 km/h
03.04.2015 23:00 5,4 C 84 % 1014,1 hPa 0,4 l/m 0,0 km/h SO 2,9 C 5,4 C 0,0 km/h
04.04.2015 00:00 5,3 C 84 % 1013,8 hPa 0,4 l/m 0,0 km/h SO 2,8 C 5,3 C 0,0 km/h
04.04.2015 01:00 5,3 C 84 % 1013,3 hPa 0,4 l/m 0,0 km/h SO 2,8 C 5,3 C 0,0 km/h
04.04.2015 02:00 5,3 C 85 % 1012,8 hPa 0,0 l/m 0,0 km/h SO 3,0 C 5,3 C 0,0 km/h
04.04.2015 03:00 5,2 C 85 % 1011,9 hPa 0,8 l/m 0,0 km/h SO 2,9 C 5,2 C 0,0 km/h
04.04.2015 04:00 5,1 C 85 % 1011,3 hPa 0,0 l/m 0,0 km/h SO 2,8 C 5,1 C 0,0 km/h
04.04.2015 05:00 5,1 C 85 % 1011,1 hPa 0,0 l/m 0,0 km/h SO 2,8 C 5,1 C 0,0 km/h
04.04.2015 06:00 5,3 C 85 % 1011,2 hPa 0,8 l/m 0,0 km/h SO 3,0 C 5,3 C 0,0 km/h
04.04.2015 07:00 5,6 C 85 % 1010,8 hPa 0,4 l/m 0,0 km/h SO 3,3 C 5,6 C 0,0 km/h
04.04.2015 08:00 6,3 C 85 % 1010,7 hPa 0,4 l/m 0,0 km/h SO 4,0 C 6,3 C 0,0 km/h
04.04.2015 09:00 6,7 C 85 % 1010,6 hPa 1,2 l/m 0,0 km/h SO 4,4 C 6,7 C 0,0 km/h
04.04.2015 10:00 7,6 C 84 % 1010,4 hPa 0,4 l/m 0,0 km/h O 5,1 C 7,6 C 0,0 km/h
04.04.2015 11:00 8,0 C 85 % 1010,4 hPa 1,2 l/m 0,0 km/h N 5,6 C 8,0 C 0,0 km/h
04.04.2015 12:00 9,3 C 84 % 1010,0 hPa 0,4 l/m 0,0 km/h N 6,7 C 9,3 C 0,0 km/h
04.04.2015 13:00 8,1 C 84 % 1009,6 hPa 0,8 l/m 0,0 km/h N-NO 5,6 C 8,1 C 0,0 km/h
04.04.2015 14:00 7,1 C 84 % 1009,7 hPa 0,8 l/m 1,9 km/h N-NW 4,6 C 7,1 C 1,1 km/h
04.04.2015 15:00 6,1 C 85 % 1009,7 hPa 0,8 l/m 0,0 km/h N-NO 3,8 C 6,1 C 0,0 km/h
04.04.2015 16:00 5,4 C 85 % 1009,6 hPa 0,8 l/m 0,0 km/h N-NO 3,1 C 5,4 C 0,0 km/h
04.04.2015 17:00 5,4 C 85 % 1010,2 hPa 0,8 l/m 0,0 km/h N-NO 3,1 C 5,4 C 0,0 km/h
04.04.2015 18:00 5,5 C 85 % 1010,8 hPa 0,0 l/m 0,0 km/h O 3,2 C 5,5 C 0,0 km/h
04.04.2015 19:00 5,1 C 85 % 1011,3 hPa 0,0 l/m 0,0 km/h N-NO 2,8 C 5,1 C 0,0 km/h
04.04.2015 20:00 4,6 C 85 % 1012,3 hPa 0,0 l/m 0,0 km/h N-NO 2,3 C 4,6 C 0,0 km/h
04.04.2015 21:00 4,2 C 85 % 1013,1 hPa 0,0 l/m 0,0 km/h N-NO 1,9 C 4,2 C 0,0 km/h
04.04.2015 22:00 4,5 C 84 % 1014,0 hPa 0,0 l/m 0,0 km/h N-NO 2,0 C 4,5 C 0,0 km/h
04.04.2015 23:00 4,3 C 85 % 1014,5 hPa 0,0 l/m 0,0 km/h N-NO 2,0 C 4,3 C 0,0 km/h
05.04.2015 00:00 3,4 C 85 % 1014,7 hPa 0,0 l/m 0,0 km/h N-NO 1,1 C 3,4 C 0,0 km/h
05.04.2015 01:00 2,3 C 86 % 1014,9 hPa 0,0 l/m 0,0 km/h N-NO 0,2 C 2,3 C 0,0 km/h
05.04.2015 02:00 1,3 C 86 % 1014,8 hPa 0,0 l/m 0,0 km/h N-NO -0,8 C 1,3 C 0,0 km/h
05.04.2015 03:00 1,4 C 86 % 1014,6 hPa 0,0 l/m 0,0 km/h N-NO -0,7 C 1,4 C 0,0 km/h
05.04.2015 04:00 0,3 C 86 % 1014,9 hPa 0,0 l/m 0,0 km/h N-NO -1,8 C 0,3 C 0,0 km/h
05.04.2015 05:00 -0,3 C 86 % 1015,4 hPa 0,0 l/m 0,0 km/h N-NO -2,3 C -0,3 C 0,0 km/h
05.04.2015 06:00 -1,4 C 86 % 1016,0 hPa 0,0 l/m 0,0 km/h N-NO -3,4 C -1,4 C 0,0 km/h
05.04.2015 07:00 -1,0 C 86 % 1016,6 hPa 0,0 l/m 0,0 km/h W-NW -3,0 C -1,0 C 0,0 km/h
05.04.2015 08:00 3,6 C 77 % 1017,4 hPa 0,0 l/m 0,0 km/h NO -0,0 C 3,6 C 0,0 km/h
05.04.2015 09:00 11,6 C 71 % 1017,8 hPa 0,0 l/m 0,0 km/h NO 6,5 C 11,6 C 0,0 km/h
05.04.2015 10:00 13,0 C 59 % 1018,2 hPa 0,0 l/m 7,1 km/h NO 5,2 C 12,6 C 4,0 km/h
05.04.2015 11:00 14,9 C 46 % 1018,3 hPa 0,0 l/m 0,0 km/h NO 3,4 C 14,9 C 0,0 km/h
05.04.2015 12:00 12,9 C 47 % 1018,3 hPa 0,0 l/m 0,0 km/h NW 1,9 C 12,9 C 0,0 km/h
05.04.2015 13:00 12,7 C 46 % 1018,3 hPa 0,0 l/m 0,0 km/h O 1,4 C 12,7 C 0,0 km/h
05.04.2015 14:00 13,5 C 42 % 1018,5 hPa 0,0 l/m 0,0 km/h N-NO 0,8 C 13,5 C 0,0 km/h
05.04.2015 15:00 12,9 C 45 % 1018,6 hPa 0,0 l/m 0,0 km/h NO 1,3 C 12,9 C 0,0 km/h
05.04.2015 16:00 17,6 C 34 % 1018,8 hPa 0,0 l/m 0,0 km/h NO 1,6 C 17,6 C 0,0 km/h
05.04.2015 17:00 18,3 C 31 % 1018,9 hPa 0,0 l/m 3,2 km/h N 0,9 C 18,3 C 1,8 km/h
05.04.2015 18:00 15,5 C 35 % 1019,4 hPa 0,0 l/m 0,0 km/h NO 0,1 C 15,5 C 0,0 km/h
05.04.2015 19:00 8,8 C 40 % 1020,1 hPa 0,0 l/m 0,0 km/h NO -4,0 C 8,8 C 0,0 km/h
05.04.2015 20:00 4,0 C 53 % 1020,8 hPa 0,0 l/m 0,0 km/h NO -4,7 C 4,0 C 0,0 km/h
05.04.2015 21:00 1,5 C 64 % 1021,6 hPa 0,0 l/m 0,0 km/h SO -4,6 C 1,5 C 0,0 km/h
05.04.2015 22:00 1,2 C 72 % 1021,6 hPa 0,0 l/m 0,0 km/h SO -3,3 C 1,2 C 0,0 km/h
05.04.2015 23:00 0,5 C 74 % 1021,9 hPa 0,0 l/m 0,0 km/h O-SO -3,6 C 0,5 C 0,0 km/h
Min-Datum _ 05.04.15 05.04.15 30.03.15 - 30.03.15 - 05.04.15 02.04.15 30.03.15
_ Min-Zeit 06:51 17:51 05:51 - 06:51 - 20:51 07:51 06:51
Minimum _ -1,4 C 31 % 1000,6 hPa - 0,0 km/h - -4,7 C -7,9 C 0,0 km/h
Max-Datum _ 05.04.15 02.04.15 01.04.15 02.04.15 31.03.15 - 31.03.15 05.04.15 31.03.15
_ Max-Zeit 17:51 19:51 20:51 16:51 11:51 - 05:51 17:51 11:51
Maximum _ 18,3 C 86 % 1022,7 hPa 3,3 l/m 60,9 km/h
S-SW
- 9,2 C 18,3 C 33,8 km/h
S-SW
Durchschnitt _ 7,7 C 73 % 1014,4 hPa #31,9 l/m 9,1 km/h W 2,9 C 5,2 C 5,0 km/h
www.sexauwetter.de